sensor_id;sensor_type;location;lat;lon;timestamp;pressure;altitude;pressure_sealevel;temperature;humidity
60874;BME280;46715;40.642;-7.920;2024-01-06T00:00:19;75529.38;;;-146.45;100.00
60874;BME280;46715;40.642;-7.920;2024-01-06T00:02:21;75523.41;;;-146.45;100.00
60874;BME280;46715;40.642;-7.920;2024-01-06T00:04:22;75525.41;;;-146.45;100.00
60874;BME280;46715;40.642;-7.920;2024-01-06T00:06:24;75531.34;;;-146.45;100.00
60874;BME280;46715;40.642;-7.920;2024-01-06T00:08:25;75537.31;;;-146.45;100.00
60874;BME280;46715;40.642;-7.920;2024-01-06T00:10:26;75537.31;;;-146.45;100.00
60874;BME280;46715;40.642;-7.920;2024-01-06T00:12:27;75529.38;;;-146.45;100.00
60874;BME280;46715;40.642;-7.920;2024-01-06T00:14:27;75517.44;;;-146.45;100.00
60874;BME280;46715;40.642;-7.920;2024-01-06T00:16:28;75523.41;;;-146.45;100.00
60874;BME280;46715;40.642;-7.920;2024-01-06T00:18:29;75521.41;;;-146.45;100.00
60874;BME280;46715;40.642;-7.920;2024-01-06T00:20:29;75503.50;;;-146.45;100.00
60874;BME280;46715;40.642;-7.920;2024-01-06T00:22:30;75493.56;;;-146.45;100.00
60874;BME280;46715;40.642;-7.920;2024-01-06T00:24:31;75493.56;;;-146.45;100.00
60874;BME280;46715;40.642;-7.920;2024-01-06T00:26:32;75473.69;;;-146.45;100.00
60874;BME280;46715;40.642;-7.920;2024-01-06T00:28:33;75477.66;;;-146.45;100.00
60874;BME280;46715;40.642;-7.920;2024-01-06T00:30:33;75475.66;;;-146.45;100.00
60874;BME280;46715;40.642;-7.920;2024-01-06T00:32:34;75475.66;;;-146.45;100.00
60874;BME280;46715;40.642;-7.920;2024-01-06T00:34:35;75475.66;;;-146.45;100.00
60874;BME280;46715;40.642;-7.920;2024-01-06T00:36:36;75481.63;;;-146.45;100.00
60874;BME280;46715;40.642;-7.920;2024-01-06T00:38:37;75487.59;;;-146.45;100.00
60874;BME280;46715;40.642;-7.920;2024-01-06T00:40:37;75489.59;;;-146.45;100.00
60874;BME280;46715;40.642;-7.920;2024-01-06T00:42:38;75493.56;;;-146.45;100.00
60874;BME280;46715;40.642;-7.920;2024-01-06T00:44:39;75495.56;;;-146.45;100.00
60874;BME280;46715;40.642;-7.920;2024-01-06T00:46:40;75495.56;;;-146.45;100.00
60874;BME280;46715;40.642;-7.920;2024-01-06T00:48:41;75499.53;;;-146.45;100.00
60874;BME280;46715;40.642;-7.920;2024-01-06T00:50:42;75499.53;;;-146.45;100.00
60874;BME280;46715;40.642;-7.920;2024-01-06T00:52:43;75507.50;;;-146.45;100.00
60874;BME280;46715;40.642;-7.920;2024-01-06T00:54:44;75505.50;;;-146.45;100.00
60874;BME280;46715;40.642;-7.920;2024-01-06T00:56:44;75513.47;;;-146.45;100.00
60874;BME280;46715;40.642;-7.920;2024-01-06T00:58:45;75509.47;;;-146.45;100.00
60874;BME280;46715;40.642;-7.920;2024-01-06T01:00:46;75513.47;;;-146.45;100.00
60874;BME280;46715;40.642;-7.920;2024-01-06T01:02:47;75499.53;;;-146.45;100.00
60874;BME280;46715;40.642;-7.920;2024-01-06T01:04:47;75511.47;;;-146.45;100.00
60874;BME280;46715;40.642;-7.920;2024-01-06T01:06:48;75525.41;;;-146.45;100.00
60874;BME280;46715;40.642;-7.920;2024-01-06T01:08:49;75523.41;;;-146.45;100.00
60874;BME280;46715;40.642;-7.920;2024-01-06T01:10:50;75533.34;;;-146.45;100.00
60874;BME280;46715;40.642;-7.920;2024-01-06T01:12:51;75541.31;;;-146.45;100.00
60874;BME280;46715;40.642;-7.920;2024-01-06T01:14:58;75557.22;;;-146.45;100.00
60874;BME280;46715;40.642;-7.920;2024-01-06T01:16:59;75557.22;;;-146.45;100.00
60874;BME280;46715;40.642;-7.920;2024-01-06T01:19:00;75569.16;;;-146.45;100.00
60874;BME280;46715;40.642;-7.920;2024-01-06T01:21:02;75573.13;;;-146.45;100.00
60874;BME280;46715;40.642;-7.920;2024-01-06T01:23:03;75569.16;;;-146.45;100.00
60874;BME280;46715;40.642;-7.920;2024-01-06T01:25:04;75579.09;;;-146.45;100.00
60874;BME280;46715;40.642;-7.920;2024-01-06T01:27:08;75591.03;;;-146.45;100.00
60874;BME280;46715;40.642;-7.920;2024-01-06T01:29:09;75600.97;;;-146.45;100.00
60874;BME280;46715;40.642;-7.920;2024-01-06T01:31:10;75597.00;;;-146.45;100.00
60874;BME280;46715;40.642;-7.920;2024-01-06T01:33:11;75595.00;;;-146.45;100.00
60874;BME280;46715;40.642;-7.920;2024-01-06T01:35:12;75599.00;;;-146.45;100.00
60874;BME280;46715;40.642;-7.920;2024-01-06T01:37:13;75604.97;;;-146.45;100.00
60874;BME280;46715;40.642;-7.920;2024-01-06T01:39:14;75610.94;;;-146.45;100.00
60874;BME280;46715;40.642;-7.920;2024-01-06T01:41:14;75614.91;;;-146.45;100.00
60874;BME280;46715;40.642;-7.920;2024-01-06T01:43:19;75620.88;;;-146.45;100.00
60874;BME280;46715;40.642;-7.920;2024-01-06T01:45:20;75612.91;;;-146.45;100.00
60874;BME280;46715;40.642;-7.920;2024-01-06T01:47:21;75608.94;;;-146.45;100.00
60874;BME280;46715;40.642;-7.920;2024-01-06T01:49:22;75599.00;;;-146.45;100.00
60874;BME280;46715;40.642;-7.920;2024-01-06T01:51:24;75587.06;;;-146.45;100.00
60874;BME280;46715;40.642;-7.920;2024-01-06T01:53:33;75581.09;;;-146.45;100.00
60874;BME280;46715;40.642;-7.920;2024-01-06T01:55:34;75573.13;;;-146.45;100.00
60874;BME280;46715;40.642;-7.920;2024-01-06T01:57:35;75567.16;;;-146.45;100.00
60874;BME280;46715;40.642;-7.920;2024-01-06T01:59:36;75575.13;;;-146.45;100.00
60874;BME280;46715;40.642;-7.920;2024-01-06T02:01:37;75573.13;;;-146.45;100.00
60874;BME280;46715;40.642;-7.920;2024-01-06T02:03:40;75573.13;;;-146.45;100.00
60874;BME280;46715;40.642;-7.920;2024-01-06T02:05:41;75585.06;;;-146.45;100.00
60874;BME280;46715;40.642;-7.920;2024-01-06T02:07:42;75591.03;;;-146.45;100.00
60874;BME280;46715;40.642;-7.920;2024-01-06T02:09:43;75602.97;;;-146.45;100.00
60874;BME280;46715;40.642;-7.920;2024-01-06T02:11:44;75608.94;;;-146.45;100.00
60874;BME280;46715;40.642;-7.920;2024-01-06T02:13:45;75622.84;;;-146.45;100.00
60874;BME280;46715;40.642;-7.920;2024-01-06T02:15:46;75634.78;;;-146.45;100.00
60874;BME280;46715;40.642;-7.920;2024-01-06T02:17:46;75640.75;;;-146.45;100.00
60874;BME280;46715;40.642;-7.920;2024-01-06T02:19:47;75638.78;;;-146.45;100.00
60874;BME280;46715;40.642;-7.920;2024-01-06T02:21:51;75630.81;;;-146.45;100.00
60874;BME280;46715;40.642;-7.920;2024-01-06T02:23:52;75608.94;;;-146.45;100.00
60874;BME280;46715;40.642;-7.920;2024-01-06T02:25:53;75618.88;;;-146.45;100.00
60874;BME280;46715;40.642;-7.920;2024-01-06T02:27:55;75638.78;;;-146.45;100.00
60874;BME280;46715;40.642;-7.920;2024-01-06T02:29:55;75644.75;;;-146.45;100.00
60874;BME280;46715;40.642;-7.920;2024-01-06T02:31:56;75632.81;;;-146.45;100.00
60874;BME280;46715;40.642;-7.920;2024-01-06T02:33:58;75632.81;;;-146.45;100.00
60874;BME280;46715;40.642;-7.920;2024-01-06T02:35:59;75632.81;;;-146.45;100.00
60874;BME280;46715;40.642;-7.920;2024-01-06T02:37:59;75628.81;;;-146.45;100.00
60874;BME280;46715;40.642;-7.920;2024-01-06T02:40:01;75638.78;;;-146.45;100.00
60874;BME280;46715;40.642;-7.920;2024-01-06T02:42:02;75636.78;;;-146.45;100.00
60874;BME280;46715;40.642;-7.920;2024-01-06T02:44:03;75634.78;;;-146.45;100.00
60874;BME280;46715;40.642;-7.920;2024-01-06T02:46:04;75630.81;;;-146.45;100.00
60874;BME280;46715;40.642;-7.920;2024-01-06T02:48:05;75632.81;;;-146.45;100.00
60874;BME280;46715;40.642;-7.920;2024-01-06T02:50:06;75606.94;;;-146.45;100.00
60874;BME280;46715;40.642;-7.920;2024-01-06T02:52:07;75612.91;;;-146.45;100.00
60874;BME280;46715;40.642;-7.920;2024-01-06T02:54:08;75624.84;;;-146.45;100.00
60874;BME280;46715;40.642;-7.920;2024-01-06T02:56:12;75636.78;;;-146.45;100.00
60874;BME280;46715;40.642;-7.920;2024-01-06T02:58:12;75640.75;;;-146.45;100.00
60874;BME280;46715;40.642;-7.920;2024-01-06T03:00:14;75634.78;;;-146.45;100.00
60874;BME280;46715;40.642;-7.920;2024-01-06T03:02:15;75616.88;;;-146.45;100.00
60874;BME280;46715;40.642;-7.920;2024-01-06T03:04:15;75624.84;;;-146.45;100.00
60874;BME280;46715;40.642;-7.920;2024-01-06T03:06:16;75624.84;;;-146.45;100.00
60874;BME280;46715;40.642;-7.920;2024-01-06T03:08:17;75624.84;;;-146.45;100.00
60874;BME280;46715;40.642;-7.920;2024-01-06T03:10:18;75606.94;;;-146.45;100.00
60874;BME280;46715;40.642;-7.920;2024-01-06T03:12:18;75597.00;;;-146.45;100.00
60874;BME280;46715;40.642;-7.920;2024-01-06T03:14:19;75608.94;;;-146.45;100.00
60874;BME280;46715;40.642;-7.920;2024-01-06T03:16:20;75624.84;;;-146.45;100.00
60874;BME280;46715;40.642;-7.920;2024-01-06T03:18:21;75634.78;;;-146.45;100.00
60874;BME280;46715;40.642;-7.920;2024-01-06T03:20:21;75624.84;;;-146.45;100.00
60874;BME280;46715;40.642;-7.920;2024-01-06T03:22:22;75612.91;;;-146.45;100.00
60874;BME280;46715;40.642;-7.920;2024-01-06T03:24:24;75608.94;;;-146.45;100.00
60874;BME280;46715;40.642;-7.920;2024-01-06T03:26:25;75624.84;;;-146.45;100.00
60874;BME280;46715;40.642;-7.920;2024-01-06T03:28:26;75642.75;;;-146.45;100.00
60874;BME280;46715;40.642;-7.920;2024-01-06T03:30:26;75656.66;;;-146.45;100.00
60874;BME280;46715;40.642;-7.920;2024-01-06T03:32:33;75662.63;;;-146.45;100.00
60874;BME280;46715;40.642;-7.920;2024-01-06T03:34:34;75654.69;;;-146.45;100.00
60874;BME280;46715;40.642;-7.920;2024-01-06T03:36:35;75636.78;;;-146.45;100.00
60874;BME280;46715;40.642;-7.920;2024-01-06T03:38:35;75614.91;;;-146.45;100.00
60874;BME280;46715;40.642;-7.920;2024-01-06T03:40:36;75622.84;;;-146.45;100.00
60874;BME280;46715;40.642;-7.920;2024-01-06T03:42:37;75620.88;;;-146.45;100.00
60874;BME280;46715;40.642;-7.920;2024-01-06T03:44:38;75624.84;;;-146.45;100.00
60874;BME280;46715;40.642;-7.920;2024-01-06T03:46:39;75624.84;;;-146.45;100.00
60874;BME280;46715;40.642;-7.920;2024-01-06T03:48:40;75630.81;;;-146.45;100.00
60874;BME280;46715;40.642;-7.920;2024-01-06T03:50:40;75640.75;;;-146.45;100.00
60874;BME280;46715;40.642;-7.920;2024-01-06T03:52:41;75634.78;;;-146.45;100.00
60874;BME280;46715;40.642;-7.920;2024-01-06T03:54:42;75626.84;;;-146.45;100.00
60874;BME280;46715;40.642;-7.920;2024-01-06T03:56:43;75610.94;;;-146.45;100.00
60874;BME280;46715;40.642;-7.920;2024-01-06T03:58:44;75593.03;;;-146.45;100.00
60874;BME280;46715;40.642;-7.920;2024-01-06T04:00:44;75583.06;;;-146.45;100.00
60874;BME280;46715;40.642;-7.920;2024-01-06T04:02:45;75571.13;;;-146.45;100.00
60874;BME280;46715;40.642;-7.920;2024-01-06T04:04:46;75561.19;;;-146.45;100.00
60874;BME280;46715;40.642;-7.920;2024-01-06T04:06:47;75553.25;;;-146.45;100.00
60874;BME280;46715;40.642;-7.920;2024-01-06T04:08:47;75549.25;;;-146.45;100.00
60874;BME280;46715;40.642;-7.920;2024-01-06T04:10:48;75543.28;;;-146.45;100.00
60874;BME280;46715;40.642;-7.920;2024-01-06T04:12:49;75545.28;;;-146.45;100.00
60874;BME280;46715;40.642;-7.920;2024-01-06T04:14:50;75541.31;;;-146.45;100.00
60874;BME280;46715;40.642;-7.920;2024-01-06T04:16:51;75555.22;;;-146.45;100.00
60874;BME280;46715;40.642;-7.920;2024-01-06T04:18:53;75553.25;;;-146.45;100.00
60874;BME280;46715;40.642;-7.920;2024-01-06T04:20:54;75551.25;;;-146.45;100.00
60874;BME280;46715;40.642;-7.920;2024-01-06T04:22:54;75549.25;;;-146.45;100.00
60874;BME280;46715;40.642;-7.920;2024-01-06T04:24:55;75551.25;;;-146.45;100.00
60874;BME280;46715;40.642;-7.920;2024-01-06T04:26:56;75563.19;;;-146.45;100.00
60874;BME280;46715;40.642;-7.920;2024-01-06T04:28:57;75573.13;;;-146.45;100.00
60874;BME280;46715;40.642;-7.920;2024-01-06T04:30:57;75573.13;;;-146.45;100.00
60874;BME280;46715;40.642;-7.920;2024-01-06T04:32:58;75585.06;;;-146.45;100.00
60874;BME280;46715;40.642;-7.920;2024-01-06T04:34:59;75589.03;;;-146.45;100.00
60874;BME280;46715;40.642;-7.920;2024-01-06T04:37:00;75597.00;;;-146.45;100.00
60874;BME280;46715;40.642;-7.920;2024-01-06T04:39:01;75595.00;;;-146.45;100.00
60874;BME280;46715;40.642;-7.920;2024-01-06T04:41:02;75595.00;;;-146.45;100.00
60874;BME280;46715;40.642;-7.920;2024-01-06T04:43:02;75595.00;;;-146.45;100.00
60874;BME280;46715;40.642;-7.920;2024-01-06T04:45:04;75597.00;;;-146.45;100.00
60874;BME280;46715;40.642;-7.920;2024-01-06T04:47:05;75604.97;;;-146.45;100.00
60874;BME280;46715;40.642;-7.920;2024-01-06T04:49:06;75606.94;;;-146.45;100.00
60874;BME280;46715;40.642;-7.920;2024-01-06T04:51:07;75632.81;;;-146.45;100.00
60874;BME280;46715;40.642;-7.920;2024-01-06T04:53:10;75660.66;;;-146.45;100.00
60874;BME280;46715;40.642;-7.920;2024-01-06T04:55:11;75680.53;;;-146.45;100.00
60874;BME280;46715;40.642;-7.920;2024-01-06T04:57:12;75692.47;;;-146.45;100.00
60874;BME280;46715;40.642;-7.920;2024-01-06T04:59:13;75710.38;;;-146.45;100.00
60874;BME280;46715;40.642;-7.920;2024-01-06T05:01:14;75726.28;;;-146.45;100.00
60874;BME280;46715;40.642;-7.920;2024-01-06T05:03:15;75738.22;;;-146.45;100.00
60874;BME280;46715;40.642;-7.920;2024-01-06T05:05:16;75754.13;;;-146.45;100.00
60874;BME280;46715;40.642;-7.920;2024-01-06T05:07:16;75772.03;;;-146.45;100.00
60874;BME280;46715;40.642;-7.920;2024-01-06T05:09:18;75783.97;;;-146.45;100.00
60874;BME280;46715;40.642;-7.920;2024-01-06T05:11:18;75791.94;;;-146.45;100.00
60874;BME280;46715;40.642;-7.920;2024-01-06T05:13:19;75805.84;;;-146.45;100.00
60874;BME280;46715;40.642;-7.920;2024-01-06T05:15:20;75813.81;;;-146.45;100.00
60874;BME280;46715;40.642;-7.920;2024-01-06T05:17:21;75811.81;;;-146.45;100.00
60874;BME280;46715;40.642;-7.920;2024-01-06T05:19:22;75815.81;;;-146.45;100.00
60874;BME280;46715;40.642;-7.920;2024-01-06T05:21:22;75825.75;;;-146.45;100.00
60874;BME280;46715;40.642;-7.920;2024-01-06T05:23:23;75841.66;;;-146.45;100.00
60874;BME280;46715;40.642;-7.920;2024-01-06T05:25:24;75847.63;;;-146.45;100.00
60874;BME280;46715;40.642;-7.920;2024-01-06T05:27:25;75855.59;;;-146.45;100.00
60874;BME280;46715;40.642;-7.920;2024-01-06T05:29:25;75867.53;;;-146.45;100.00
60874;BME280;46715;40.642;-7.920;2024-01-06T05:31:26;75855.59;;;-146.45;100.00
60874;BME280;46715;40.642;-7.920;2024-01-06T05:33:27;75855.59;;;-146.45;100.00
60874;BME280;46715;40.642;-7.920;2024-01-06T05:35:28;75869.50;;;-146.45;100.00
60874;BME280;46715;40.642;-7.920;2024-01-06T05:37:28;75881.44;;;-146.45;100.00
60874;BME280;46715;40.642;-7.920;2024-01-06T05:39:29;75883.44;;;-146.45;100.00
60874;BME280;46715;40.642;-7.920;2024-01-06T05:41:36;75887.41;;;-146.45;100.00
60874;BME280;46715;40.642;-7.920;2024-01-06T05:43:37;75887.41;;;-146.45;100.00
60874;BME280;46715;40.642;-7.920;2024-01-06T05:45:38;75887.41;;;-146.45;100.00
60874;BME280;46715;40.642;-7.920;2024-01-06T05:47:42;75893.38;;;-146.45;100.00
60874;BME280;46715;40.642;-7.920;2024-01-06T05:49:43;75899.34;;;-146.45;100.00
60874;BME280;46715;40.642;-7.920;2024-01-06T05:51:46;75895.38;;;-146.45;100.00
60874;BME280;46715;40.642;-7.920;2024-01-06T05:53:47;75903.31;;;-146.45;100.00
60874;BME280;46715;40.642;-7.920;2024-01-06T05:55:48;75905.31;;;-146.45;100.00
60874;BME280;46715;40.642;-7.920;2024-01-06T05:57:49;75911.28;;;-146.45;100.00
60874;BME280;46715;40.642;-7.920;2024-01-06T05:59:51;75911.28;;;-146.45;100.00
60874;BME280;46715;40.642;-7.920;2024-01-06T06:01:52;75915.25;;;-146.45;100.00
60874;BME280;46715;40.642;-7.920;2024-01-06T06:03:52;75901.34;;;-146.45;100.00
60874;BME280;46715;40.642;-7.920;2024-01-06T06:05:53;75909.28;;;-146.45;100.00
60874;BME280;46715;40.642;-7.920;2024-01-06T06:07:54;75907.31;;;-146.45;100.00
60874;BME280;46715;40.642;-7.920;2024-01-06T06:09:55;75911.28;;;-146.45;100.00
60874;BME280;46715;40.642;-7.920;2024-01-06T06:11:55;75913.28;;;-146.45;100.00
60874;BME280;46715;40.642;-7.920;2024-01-06T06:13:56;75921.22;;;-146.45;100.00
60874;BME280;46715;40.642;-7.920;2024-01-06T06:15:57;75921.22;;;-146.45;100.00
60874;BME280;46715;40.642;-7.920;2024-01-06T06:17:58;75919.25;;;-146.45;100.00
60874;BME280;46715;40.642;-7.920;2024-01-06T06:20:02;75899.34;;;-146.45;100.00
60874;BME280;46715;40.642;-7.920;2024-01-06T06:22:04;75899.34;;;-146.45;100.00
60874;BME280;46715;40.642;-7.920;2024-01-06T06:24:04;75895.38;;;-146.45;100.00
60874;BME280;46715;40.642;-7.920;2024-01-06T06:26:06;75885.44;;;-146.45;100.00
60874;BME280;46715;40.642;-7.920;2024-01-06T06:28:07;75885.44;;;-146.45;100.00
60874;BME280;46715;40.642;-7.920;2024-01-06T06:30:08;75875.47;;;-146.45;100.00
60874;BME280;46715;40.642;-7.920;2024-01-06T06:32:09;75879.47;;;-146.45;100.00
60874;BME280;46715;40.642;-7.920;2024-01-06T06:34:10;75887.41;;;-146.45;100.00
60874;BME280;46715;40.642;-7.920;2024-01-06T06:36:11;75901.34;;;-146.45;100.00
60874;BME280;46715;40.642;-7.920;2024-01-06T06:38:11;75909.28;;;-146.45;100.00
60874;BME280;46715;40.642;-7.920;2024-01-06T06:40:12;75913.28;;;-146.45;100.00
60874;BME280;46715;40.642;-7.920;2024-01-06T06:42:13;75923.22;;;-146.45;100.00
60874;BME280;46715;40.642;-7.920;2024-01-06T06:44:14;75935.16;;;-146.45;100.00
60874;BME280;46715;40.642;-7.920;2024-01-06T06:46:15;75945.09;;;-146.45;100.00
60874;BME280;46715;40.642;-7.920;2024-01-06T06:48:15;75955.06;;;-146.45;100.00
60874;BME280;46715;40.642;-7.920;2024-01-06T06:50:17;75951.06;;;-146.45;100.00
60874;BME280;46715;40.642;-7.920;2024-01-06T06:52:18;75937.16;;;-146.45;100.00
60874;BME280;46715;40.642;-7.920;2024-01-06T06:54:18;75931.19;;;-146.45;100.00
60874;BME280;46715;40.642;-7.920;2024-01-06T06:56:19;75923.22;;;-146.45;100.00
60874;BME280;46715;40.642;-7.920;2024-01-06T06:58:20;75929.19;;;-146.45;100.00
60874;BME280;46715;40.642;-7.920;2024-01-06T07:00:21;75925.22;;;-146.45;100.00
60874;BME280;46715;40.642;-7.920;2024-01-06T07:02:22;75927.19;;;-146.45;100.00
60874;BME280;46715;40.642;-7.920;2024-01-06T07:04:23;75947.09;;;-146.45;100.00
60874;BME280;46715;40.642;-7.920;2024-01-06T07:06:26;75965.00;;;-146.45;100.00
60874;BME280;46715;40.642;-7.920;2024-01-06T07:08:27;75974.94;;;-146.45;100.00
60874;BME280;46715;40.642;-7.920;2024-01-06T07:10:28;75978.91;;;-146.45;100.00
60874;BME280;46715;40.642;-7.920;2024-01-06T07:12:28;75984.88;;;-146.45;100.00
60874;BME280;46715;40.642;-7.920;2024-01-06T07:14:29;75974.94;;;-146.45;100.00
60874;BME280;46715;40.642;-7.920;2024-01-06T07:16:30;75978.91;;;-146.45;100.00
60874;BME280;46715;40.642;-7.920;2024-01-06T07:18:31;75980.91;;;-146.45;100.00
60874;BME280;46715;40.642;-7.920;2024-01-06T07:20:31;75974.94;;;-146.45;100.00
60874;BME280;46715;40.642;-7.920;2024-01-06T07:22:33;75986.88;;;-146.45;100.00
60874;BME280;46715;40.642;-7.920;2024-01-06T07:24:35;75976.94;;;-146.45;100.00
60874;BME280;46715;40.642;-7.920;2024-01-06T07:26:36;75984.88;;;-146.45;100.00
60874;BME280;46715;40.642;-7.920;2024-01-06T07:28:37;75982.91;;;-146.45;100.00
60874;BME280;46715;40.642;-7.920;2024-01-06T07:30:38;75984.88;;;-146.45;100.00
60874;BME280;46715;40.642;-7.920;2024-01-06T07:32:39;75994.84;;;-146.45;100.00
60874;BME280;46715;40.642;-7.920;2024-01-06T07:34:40;76004.78;;;-146.45;100.00
60874;BME280;46715;40.642;-7.920;2024-01-06T07:36:41;75994.84;;;-146.45;100.00
60874;BME280;46715;40.642;-7.920;2024-01-06T07:38:42;75970.97;;;-146.45;100.00
60874;BME280;46715;40.642;-7.920;2024-01-06T07:40:42;75986.88;;;-146.45;100.00
60874;BME280;46715;40.642;-7.920;2024-01-06T07:42:44;76004.78;;;-146.45;100.00
60874;BME280;46715;40.642;-7.920;2024-01-06T07:44:45;76010.75;;;-146.45;100.00
60874;BME280;46715;40.642;-7.920;2024-01-06T07:46:46;76014.72;;;-146.45;100.00
60874;BME280;46715;40.642;-7.920;2024-01-06T07:48:47;76028.66;;;-146.45;100.00
60874;BME280;46715;40.642;-7.920;2024-01-06T07:50:48;76032.63;;;-146.45;100.00
60874;BME280;46715;40.642;-7.920;2024-01-06T07:52:48;76034.63;;;-146.45;100.00
60874;BME280;46715;40.642;-7.920;2024-01-06T07:54:49;76030.66;;;-146.45;100.00
60874;BME280;46715;40.642;-7.920;2024-01-06T07:56:50;76018.72;;;-146.45;100.00
60874;BME280;46715;40.642;-7.920;2024-01-06T07:58:50;76014.72;;;-146.45;100.00
60874;BME280;46715;40.642;-7.920;2024-01-06T08:00:52;76008.75;;;-146.45;100.00
60874;BME280;46715;40.642;-7.920;2024-01-06T08:02:53;76010.75;;;-146.45;100.00
60874;BME280;46715;40.642;-7.920;2024-01-06T08:04:54;76000.81;;;-146.45;100.00
60874;BME280;46715;40.642;-7.920;2024-01-06T08:06:56;75996.81;;;-146.45;100.00
60874;BME280;46715;40.642;-7.920;2024-01-06T08:08:57;75988.88;;;-146.45;100.00
60874;BME280;46715;40.642;-7.920;2024-01-06T08:10:57;75980.91;;;-146.45;100.00
60874;BME280;46715;40.642;-7.920;2024-01-06T08:12:58;75980.91;;;-146.45;100.00
60874;BME280;46715;40.642;-7.920;2024-01-06T08:14:59;75986.88;;;-146.45;100.00
60874;BME280;46715;40.642;-7.920;2024-01-06T08:17:00;75984.88;;;-146.45;100.00
60874;BME280;46715;40.642;-7.920;2024-01-06T08:19:01;75984.88;;;-146.45;100.00
60874;BME280;46715;40.642;-7.920;2024-01-06T08:21:02;75988.88;;;-146.45;100.00
60874;BME280;46715;40.642;-7.920;2024-01-06T08:23:03;75992.84;;;-146.45;100.00
60874;BME280;46715;40.642;-7.920;2024-01-06T08:25:05;76018.72;;;-146.45;100.00
60874;BME280;46715;40.642;-7.920;2024-01-06T08:27:08;75996.81;;;-146.45;100.00
60874;BME280;46715;40.642;-7.920;2024-01-06T08:29:09;75947.09;;;-146.45;100.00
60874;BME280;46715;40.642;-7.920;2024-01-06T08:31:10;75861.56;;;-146.45;100.00
60874;BME280;46715;40.642;-7.920;2024-01-06T08:33:11;75776.03;;;-146.45;100.00
60874;BME280;46715;40.642;-7.920;2024-01-06T08:35:11;75700.44;;;-146.45;100.00
60874;BME280;46715;40.642;-7.920;2024-01-06T08:37:12;75620.88;;;-146.45;97.76
60874;BME280;46715;40.642;-7.920;2024-01-06T08:39:13;75543.28;;;-146.45;95.23
60874;BME280;46715;40.642;-7.920;2024-01-06T08:41:14;75503.50;;;-146.45;91.86
60874;BME280;46715;40.642;-7.920;2024-01-06T08:43:15;75469.69;;;-146.45;90.98
60874;BME280;46715;40.642;-7.920;2024-01-06T08:45:16;75441.84;;;-146.45;89.87
60874;BME280;46715;40.642;-7.920;2024-01-06T08:47:17;75412.03;;;-146.45;88.82
60874;BME280;46715;40.642;-7.920;2024-01-06T08:49:18;75342.41;;;-146.45;85.33
60874;BME280;46715;40.642;-7.920;2024-01-06T08:51:18;75300.63;;;-146.45;84.21
60874;BME280;46715;40.642;-7.920;2024-01-06T08:53:21;75250.91;;;-146.45;82.55
60874;BME280;46715;40.642;-7.920;2024-01-06T08:55:21;75161.41;;;-146.45;80.11
60874;BME280;46715;40.642;-7.920;2024-01-06T08:57:22;75081.84;;;-146.45;76.86
60874;BME280;46715;40.642;-7.920;2024-01-06T08:59:23;75044.06;;;-146.45;74.33
60874;BME280;46715;40.642;-7.920;2024-01-06T09:01:23;75014.25;;;-146.45;74.28
60874;BME280;46715;40.642;-7.920;2024-01-06T09:03:24;74950.59;;;-146.45;72.40
60874;BME280;46715;40.642;-7.920;2024-01-06T09:05:26;74912.81;;;-146.45;69.85
60874;BME280;46715;40.642;-7.920;2024-01-06T09:07:27;74879.00;;;-146.45;67.72
60874;BME280;46715;40.642;-7.920;2024-01-06T09:09:28;74871.03;;;-146.45;65.26
60874;BME280;46715;40.642;-7.920;2024-01-06T09:11:29;74926.72;;;-146.45;66.52
60874;BME280;46715;40.642;-7.920;2024-01-06T09:13:29;75016.22;;;-146.45;69.50
60874;BME280;46715;40.642;-7.920;2024-01-06T09:15:30;75133.56;;;-146.45;71.68
60874;BME280;46715;40.642;-7.920;2024-01-06T09:17:32;75238.97;;;-146.45;75.62
60874;BME280;46715;40.642;-7.920;2024-01-06T09:19:38;75306.59;;;-146.45;79.60
60874;BME280;46715;40.642;-7.920;2024-01-06T09:21:38;75360.31;;;-146.45;82.26
60874;BME280;46715;40.642;-7.920;2024-01-06T09:23:39;75394.13;;;-146.45;85.06
60874;BME280;46715;40.642;-7.920;2024-01-06T09:25:40;75429.91;;;-146.45;87.15
60874;BME280;46715;40.642;-7.920;2024-01-06T09:27:41;75445.84;;;-146.45;89.20
60874;BME280;46715;40.642;-7.920;2024-01-06T09:29:42;75463.72;;;-146.45;90.33
60874;BME280;46715;40.642;-7.920;2024-01-06T09:31:43;75467.72;;;-146.45;91.66
60874;BME280;46715;40.642;-7.920;2024-01-06T09:33:43;75463.72;;;-146.45;93.30
60874;BME280;46715;40.642;-7.920;2024-01-06T09:35:44;75469.69;;;-146.45;93.82
60874;BME280;46715;40.642;-7.920;2024-01-06T09:37:45;75463.72;;;-146.45;94.47
60874;BME280;46715;40.642;-7.920;2024-01-06T09:39:46;75461.75;;;-146.45;95.27
60874;BME280;46715;40.642;-7.920;2024-01-06T09:41:46;75455.78;;;-146.45;94.98
60874;BME280;46715;40.642;-7.920;2024-01-06T09:43:47;75453.78;;;-146.45;94.57
60874;BME280;46715;40.642;-7.920;2024-01-06T09:46:37;75449.81;;;-146.45;93.55
60874;BME280;46715;40.642;-7.920;2024-01-06T09:48:13;75445.84;;;-146.45;94.05
60874;BME280;46715;40.642;-7.920;2024-01-06T09:50:18;75453.78;;;-146.45;94.08
60874;BME280;46715;40.642;-7.920;2024-01-06T09:52:22;75447.81;;;-146.45;94.62
60874;BME280;46715;40.642;-7.920;2024-01-06T09:54:25;75439.88;;;-146.45;95.39
60874;BME280;46715;40.642;-7.920;2024-01-06T09:56:29;75453.78;;;-146.45;91.97
60874;BME280;46715;40.642;-7.920;2024-01-06T09:58:30;75469.69;;;-146.45;90.55
60874;BME280;46715;40.642;-7.920;2024-01-06T10:00:34;75469.69;;;-146.45;90.71
60874;BME280;46715;40.642;-7.920;2024-01-06T10:02:35;75473.69;;;-146.45;89.86
60874;BME280;46715;40.642;-7.920;2024-01-06T10:04:36;75477.66;;;-146.45;88.85
60874;BME280;46715;40.642;-7.920;2024-01-06T10:06:36;75487.59;;;-146.45;88.65
60874;BME280;46715;40.642;-7.920;2024-01-06T10:08:47;75479.66;;;-146.45;88.73
60874;BME280;46715;40.642;-7.920;2024-01-06T10:10:48;75477.66;;;-146.45;88.20